Strona główna
METAR-TAF:

METAR-TAF

Lotnisko :

Port lotniczy Pekanbaru

Pekanbaru, Indonezja

Szerokość geograficzna: 00-28N, Długość geograficzna: 101-27E, wysokość: 31 m

Aktualna obserwacja pogody

Raport powstał 38 minut temu, godzina 22:30 UTC
Cisza
Temperatura 25°C
Wilgotność 94%
Ciśnienie 1009 hPa
Widzialność: 6000 m
Mało chmury na wysokości 1000 ft

METAR: WIBB 102230Z 00000KT 6000 FEW010 25/24 Q1009

czas: 06:08 (23:08 UTC)


TAF: brakujący

Obserwacja i prognoza pogody dla ponad 4000 lotnisk (raport METAR i TAF).

Dostępne stacje oznaczono żółtymi i czerwonymi punktami na mapie.

Najedź kursorem aby zobaczyć nazwę stacji.

Kliknij aby zobaczyć obserwacje i prognozy pogody.

Aby zmienić mapę: kliknij na zielony przycisk z czarnym krzyżykiem, aby powiększyć; na zielony przycisk z myślnikiem, aby pomniejszyć; na zielone strzałki, aby przejść do map sąsiednich.


METAR-TAF: